KSEE

Gillespie Field Airport

San Diego/El Cajon, California, USA
METAR KSEE 171747Z VRB06KT 10SM SKC 25/01 A3007
Observed Flight Rules
Oct-17 @ 17:47 UTC (32 minutes ago) Visual Flight Rules
Wind Visibility Clouds
Variable at 6 knots 10 miles
  • Clear skies
Temperatures Readings
Current 25°C / 77°F
Dewpoint 1°C / 34°F
Humidity 21%
Altimeter 30.07" Hg
Pressure 1018 hPa
Elevation 117
METAR KSEE 171747Z VRB06KT 10SM SKC 25/01 A3007
Observed Flight Rules
Oct-17 @ 17:47 UTC
(32 minutes ago)
VFR
Wind Visibility
Variable at 6 knots 10 miles
Clouds
  • Clear skies
Temperature Dewpoint
25°C / 77°F 1°C / 34°F
Humidity Altimeter Pressure
21% 30.07" Hg 1018 hPa